Chautauqua, Kansas
Current Conditions -  °F | °C
As of 9:33 PM on Friday 24 Oct 2014 (Local Time) from KBVO Reporting Station
Haze Haze  
Wind Chill: 60°   Ceiling: Unl
Heat Index: 60°   Visibility: 4mi
Dew Point: 59°   Wind: 0mph
Humidity: 96%   Direction: NA
Pressure: 30.04"   Gusts: NA
Location:  37.02°N, 96.18°W
Report Text: KBVO 250233Z AUTO 00000KT 4SM BR CLR 16/15 A3004 RMK AO2 T01560150
Loading
Personal Weather Stations






























Interactive Weather Map
Tropical Storm Tracking
New forecast layout! Learn more

10-Day Weather Forecast

Advertisements
Track Severe Weather on mobile